Time;durP1;ratioP1;P1;durP2;ratioP2;P2;SDS_P1;SDS_P2;PMS_P1;PMS_P2;Temp;Humidity;BMP_temperature;BMP_pressure;BME280_temperature;BME280_humidity;BME280_pressure;Samples;Min_cycle;Max_cycle;Signal;HPM_P1;HPM_P2
2022/08/28 00:00:18;;;;;;;66.70;37.00;;;18.40;99.90;;;;;;5031544;28;20443;-76
2022/08/28 00:02:45;;;;;;;67.33;37.23;;;18.40;99.90;;;;;;5031668;28;20426;-76
2022/08/28 00:05:14;;;;;;;66.57;37.07;;;18.40;99.90;;;;;;5031724;28;20834;-77
2022/08/28 00:07:40;;;;;;;49.90;33.50;;;18.40;99.90;;;;;;5030169;28;20484;-75
2022/08/28 00:10:08;;;;;;;50.40;32.67;;;18.40;99.90;;;;;;5031275;28;20983;-76
2022/08/28 00:12:35;;;;;;;57.07;33.97;;;18.40;99.90;;;;;;5031356;28;20916;-76
2022/08/28 00:15:05;;;;;;;51.47;31.37;;;18.40;99.90;;;;;;5031476;28;20754;-76
2022/08/28 00:17:30;;;;;;;51.73;32.13;;;18.50;99.90;;;;;;5031852;28;20930;-76
2022/08/28 00:19:56;;;;;;;59.87;35.27;;;18.50;99.90;;;;;;5032112;28;20446;-76
2022/08/28 00:22:22;;;;;;;54.60;32.53;;;18.40;99.90;;;;;;5029798;28;20234;-76
2022/08/28 00:24:47;;;;;;;59.07;34.83;;;18.40;99.90;;;;;;5031085;28;20689;-76
2022/08/28 00:29:58;;;;;;;61.83;36.47;;;18.30;99.90;;;;;;5031164;28;20825;-76
2022/08/28 00:32:24;;;;;;;63.60;34.47;;;18.30;99.90;;;;;;5029559;28;20423;-76
2022/08/28 00:34:50;;;;;;;48.63;34.10;;;18.30;99.90;;;;;;5030884;28;20190;-76
2022/08/28 00:37:16;;;;;;;57.07;34.20;;;18.30;99.90;;;;;;5030776;28;20797;-76
2022/08/28 00:39:42;;;;;;;51.60;32.50;;;18.40;99.90;;;;;;5030795;28;20882;-76
2022/08/28 00:42:09;;;;;;;56.07;32.40;;;18.40;99.90;;;;;;5030725;28;20429;-76
2022/08/28 00:44:35;;;;;;;66.67;35.33;;;18.50;99.90;;;;;;5029291;28;20423;-76
2022/08/28 00:47:01;;;;;;;52.73;33.47;;;18.40;99.90;;;;;;5029313;28;20429;-76
2022/08/28 00:49:30;;;;;;;52.70;31.53;;;18.40;99.90;;;;;;5030552;28;20999;-75
2022/08/28 00:52:10;;;;;;;44.77;29.37;;;18.50;99.90;;;;;;5030409;28;20407;-76
2022/08/28 00:54:50;;;;;;;56.53;31.80;;;18.40;99.90;;;;;;5029176;28;20868;-76
2022/08/28 00:57:22;;;;;;;44.43;30.03;;;18.40;99.90;;;;;;5030694;28;20413;-76
2022/08/28 00:59:48;;;;;;;48.20;30.07;;;18.40;99.90;;;;;;5030211;28;20450;-77
2022/08/28 01:02:14;;;;;;;40.50;29.90;;;18.40;99.90;;;;;;5030589;28;20473;-77
2022/08/28 01:04:40;;;;;;;49.77;30.00;;;18.40;99.90;;;;;;5030716;28;20500;-77
2022/08/28 01:07:09;;;;;;;52.10;31.50;;;18.40;99.90;;;;;;5031030;28;20180;-77
2022/08/28 01:09:37;;;;;;;49.90;31.00;;;18.40;99.90;;;;;;5030582;28;20481;-77
2022/08/28 01:12:27;;;;;;;48.83;30.07;;;18.40;99.90;;;;;;5029016;28;20442;-77
2022/08/28 01:14:58;;;;;;;62.60;37.10;;;18.40;99.90;;;;;;5030280;28;20915;-77
2022/08/28 01:17:27;;;;;;;55.00;33.20;;;18.30;99.90;;;;;;5030608;28;20454;-77
2022/08/28 01:19:57;;;;;;;62.37;37.10;;;18.20;99.90;;;;;;5029044;28;20450;-78
2022/08/28 01:22:37;;;;;;;55.13;33.63;;;18.30;99.90;;;;;;5029352;28;20415;-77
2022/08/28 01:25:08;;;;;;;54.77;34.37;;;18.30;99.90;;;;;;5030616;28;20975;-77
2022/08/28 01:27:34;;;;;;;56.50;33.13;;;18.30;99.90;;;;;;5028883;28;20426;-77
2022/08/28 01:29:59;;;;;;;60.17;35.87;;;18.30;99.90;;;;;;5028666;28;20898;-76
2022/08/28 01:32:30;;;;;;;51.80;33.90;;;18.40;99.90;;;;;;5030175;28;20176;-76
2022/08/28 01:34:57;;;;;;;37.80;24.60;;;18.40;99.90;;;;;;5030144;28;20173;-76
2022/08/28 01:37:22;;;;;;;47.83;28.47;;;18.40;99.90;;;;;;5029985;28;20561;-76
2022/08/28 01:39:48;;;;;;;37.57;27.60;;;18.40;99.90;;;;;;5029896;28;20882;-76
2022/08/28 01:42:15;;;;;;;42.47;29.27;;;18.40;99.90;;;;;;5029904;28;20187;-75
2022/08/28 01:44:40;;;;;;;42.53;28.20;;;18.40;99.90;;;;;;5029758;28;20604;-76
2022/08/28 01:47:06;;;;;;;51.37;29.50;;;18.30;99.90;;;;;;5028318;28;20419;-75
2022/08/28 01:49:32;;;;;;;47.90;29.87;;;18.30;99.90;;;;;;5029494;28;20689;-75
2022/08/28 01:51:57;;;;;;;46.27;29.97;;;18.30;99.90;;;;;;5029670;28;20183;-76
2022/08/28 01:54:24;;;;;;;33.47;24.33;;;18.30;99.90;;;;;;5011591;28;20435;-75
2022/08/28 01:56:51;;;;;;;44.03;27.60;;;18.30;99.90;;;;;;5029588;28;20180;-75
2022/08/28 01:59:16;;;;;;;37.90;25.03;;;18.20;99.90;;;;;;5029621;28;20419;-76
2022/08/28 02:01:42;;;;;;;40.07;27.43;;;18.20;99.90;;;;;;5029553;28;20426;-75
2022/08/28 02:04:09;;;;;;;40.47;26.97;;;18.20;99.90;;;;;;5029123;28;20190;-76
2022/08/28 02:06:38;;;;;;;46.63;28.90;;;18.20;99.90;;;;;;5029249;28;20431;-76
2022/08/28 02:09:07;;;;;;;39.97;26.87;;;18.20;99.90;;;;;;5029399;28;20465;-76
2022/08/28 02:11:33;;;;;;;41.60;27.30;;;18.20;99.90;;;;;;5028685;28;20924;-76
2022/08/28 02:14:00;;;;;;;37.37;26.50;;;18.20;99.90;;;;;;5029207;28;20427;-76
2022/08/28 02:16:26;;;;;;;52.67;27.40;;;18.20;99.90;;;;;;5029318;28;20920;-76
2022/08/28 02:18:52;;;;;;;56.83;30.50;;;18.30;99.90;;;;;;5027731;28;20424;-76
2022/08/28 02:21:18;;;;;;;47.27;28.30;;;18.20;99.90;;;;;;5027699;28;20456;-76
2022/08/28 02:23:45;;;;;;;50.00;29.10;;;18.30;99.90;;;;;;5029049;28;20227;-75
2022/08/28 02:26:12;;;;;;;59.10;30.47;;;18.30;99.90;;;;;;5029068;28;20427;-76
2022/08/28 02:28:37;;;;;;;55.53;31.80;;;18.20;99.90;;;;;;5028848;28;20437;-76
2022/08/28 02:31:07;;;;;;;50.10;32.27;;;18.30;99.90;;;;;;5027432;28;20486;-76
2022/08/28 02:33:34;;;;;;;45.13;29.20;;;18.30;99.90;;;;;;5028911;28;20177;-76
2022/08/28 02:35:59;;;;;;;59.70;31.53;;;18.30;99.90;;;;;;5028910;28;20411;-76
2022/08/28 02:38:25;;;;;;;52.47;32.17;;;18.30;99.90;;;;;;5028852;28;20442;-76
2022/08/28 02:40:51;;;;;;;51.77;31.27;;;18.20;99.90;;;;;;5027531;28;20196;-76
2022/08/28 02:43:17;;;;;;;52.27;31.70;;;18.20;99.90;;;;;;5028902;28;20457;-76
2022/08/28 02:45:43;;;;;;;59.43;32.23;;;18.10;99.90;;;;;;5028877;28;20431;-76
2022/08/28 02:48:08;;;;;;;64.70;35.20;;;18.20;99.90;;;;;;5028752;28;20277;-75
2022/08/28 02:50:34;;;;;;;50.80;30.13;;;18.10;99.90;;;;;;5028660;28;20216;-76
2022/08/28 02:52:59;;;;;;;58.00;32.47;;;18.10;99.90;;;;;;5027438;28;20691;-75
2022/08/28 02:55:26;;;;;;;65.00;35.13;;;18.20;99.90;;;;;;5028703;28;20199;-76
2022/08/28 02:57:53;;;;;;;53.27;33.50;;;18.20;99.90;;;;;;5027307;28;20184;-75
2022/08/28 03:00:21;;;;;;;62.53;34.20;;;18.30;99.90;;;;;;5028679;28;20450;-77
2022/08/28 03:02:48;;;;;;;57.90;33.77;;;18.20;99.90;;;;;;5028590;28;20422;-76
2022/08/28 03:05:16;;;;;;;54.10;33.40;;;18.20;99.90;;;;;;5028689;28;20473;-75
2022/08/28 03:07:42;;;;;;;53.33;32.23;;;18.30;99.90;;;;;;5028533;28;20423;-75
2022/08/28 03:10:09;;;;;;;54.00;32.40;;;18.30;99.90;;;;;;5028508;28;20470;-76
2022/08/28 03:12:35;;;;;;;57.77;33.60;;;18.30;99.90;;;;;;5028355;28;20199;-75
2022/08/28 03:15:00;;;;;;;66.87;32.73;;;18.40;99.90;;;;;;5028577;28;20426;-77
2022/08/28 03:17:26;;;;;;;86.90;39.30;;;18.40;99.90;;;;;;5028573;28;20506;-77
2022/08/28 03:19:52;;;;;;;86.40;40.40;;;18.40;99.90;;;;;;5028625;28;20204;-76
2022/08/28 03:23:25;;;;;;;100.40;46.60;;;18.40;99.90;;;;;;5012047;28;20425;-76
2022/08/28 03:25:05;;;;;;;137.20;55.37;;;18.40;99.90;;;;;;5032161;28;20205;-76
2022/08/28 03:27:31;;;;;;;162.60;55.97;;;18.30;99.90;;;;;;5030953;28;20437;-77
2022/08/28 03:29:57;;;;;;;205.07;61.53;;;18.30;99.90;;;;;;5032337;28;20528;-76
2022/08/28 03:32:24;;;;;;;121.83;55.87;;;18.30;99.90;;;;;;5030887;28;20271;-76
2022/08/28 03:34:50;;;;;;;169.87;60.87;;;18.30;99.90;;;;;;5032428;28;20422;-76
2022/08/28 03:37:16;;;;;;;149.80;56.90;;;18.30;99.90;;;;;;5032118;28;20426;-75
2022/08/28 03:39:41;;;;;;;187.03;62.17;;;18.30;99.90;;;;;;5031007;28;20205;-75
2022/08/28 03:42:07;;;;;;;155.43;56.67;;;18.20;99.90;;;;;;5030922;28;20199;-75
2022/08/28 03:44:32;;;;;;;151.73;58.63;;;18.20;99.90;;;;;;5032310;28;20555;-75
2022/08/28 03:46:58;;;;;;;120.07;53.37;;;18.20;99.90;;;;;;5030683;28;20195;-76
2022/08/28 03:49:23;;;;;;;133.70;54.33;;;18.20;99.90;;;;;;5033025;28;20211;-75
2022/08/28 03:51:49;;;;;;;159.53;56.30;;;18.20;99.90;;;;;;5031022;28;20186;-75
2022/08/28 03:54:15;;;;;;;152.03;55.17;;;18.20;99.90;;;;;;5032216;28;20212;-75
2022/08/28 03:56:41;;;;;;;127.40;52.10;;;18.20;99.90;;;;;;5013971;28;20201;-76
2022/08/28 03:59:07;;;;;;;126.23;53.83;;;18.20;99.90;;;;;;5031890;28;20611;-77
2022/08/28 04:01:33;;;;;;;119.13;53.50;;;18.20;99.90;;;;;;5031771;28;20506;-77
2022/08/28 04:03:59;;;;;;;167.37;55.80;;;18.30;99.90;;;;;;5030675;28;20986;-78
2022/08/28 04:06:26;;;;;;;176.93;61.23;;;18.30;99.90;;;;;;5032047;28;20423;-77
2022/08/28 04:08:52;;;;;;;137.67;56.80;;;18.30;99.90;;;;;;5030516;28;20277;-78
2022/08/28 04:11:17;;;;;;;173.93;61.10;;;18.30;99.90;;;;;;5031910;28;20881;-75
2022/08/28 04:13:43;;;;;;;139.67;58.10;;;18.30;99.90;;;;;;5031366;28;20200;-76
2022/08/28 04:16:12;;;;;;;140.80;58.53;;;18.30;99.90;;;;;;5030197;28;20213;-76
2022/08/28 04:18:40;;;;;;;165.63;60.37;;;18.30;99.90;;;;;;5029944;28;20189;-75
2022/08/28 04:21:09;;;;;;;142.90;59.17;;;18.30;99.90;;;;;;5030006;28;20463;-76
2022/08/28 04:23:37;;;;;;;174.30;63.83;;;18.30;99.90;;;;;;5030160;28;20455;-76
2022/08/28 04:26:06;;;;;;;157.40;59.83;;;18.30;99.90;;;;;;5031344;28;20419;-76
2022/08/28 04:28:33;;;;;;;148.07;57.50;;;18.30;99.90;;;;;;5031509;28;20512;-76
2022/08/28 04:30:59;;;;;;;162.03;58.20;;;18.30;99.90;;;;;;5031363;28;20470;-76
2022/08/28 04:33:27;;;;;;;145.97;57.90;;;18.30;99.90;;;;;;5030728;28;21030;-77
2022/08/28 04:35:53;;;;;;;148.90;55.73;;;18.20;99.90;;;;;;5031810;28;20263;-76
2022/08/28 04:38:19;;;;;;;166.03;59.30;;;18.20;99.90;;;;;;5031776;28;20549;-76
2022/08/28 04:40:45;;;;;;;130.80;56.70;;;18.20;99.90;;;;;;5031796;28;20912;-77
2022/08/28 04:43:10;;;;;;;141.50;57.23;;;18.20;99.90;;;;;;5031871;28;20411;-76
2022/08/28 04:45:40;;;;;;;163.43;57.20;;;18.30;99.90;;;;;;5030528;28;20430;-76
2022/08/28 04:48:06;;;;;;;153.30;58.47;;;18.30;99.90;;;;;;5031711;28;20189;-75
2022/08/28 04:50:33;;;;;;;176.10;60.90;;;18.20;99.90;;;;;;5031740;28;20475;-76
2022/08/28 04:52:58;;;;;;;176.87;58.33;;;18.30;99.90;;;;;;5031627;28;20192;-75
2022/08/28 04:55:24;;;;;;;167.07;59.37;;;18.20;99.90;;;;;;5031549;28;20417;-75
2022/08/28 04:57:50;;;;;;;188.17;53.73;;;18.20;99.90;;;;;;5033386;28;20669;-77
2022/08/28 05:00:16;;;;;;;140.13;56.40;;;18.20;99.90;;;;;;5031827;28;20200;-77
2022/08/28 05:02:42;;;;;;;178.07;54.00;;;18.20;99.90;;;;;;5033241;28;20428;-77
2022/08/28 05:05:08;;;;;;;157.00;54.17;;;18.20;99.90;;;;;;5033160;28;20945;-77
2022/08/28 05:07:34;;;;;;;139.00;54.80;;;18.10;99.90;;;;;;5031323;28;20267;-77
2022/08/28 05:09:59;;;;;;;107.93;47.80;;;18.20;99.90;;;;;;5031015;28;20582;-76
2022/08/28 05:12:25;;;;;;;118.43;48.77;;;18.20;99.90;;;;;;5032064;28;20247;-77
2022/08/28 05:14:51;;;;;;;88.60;44.77;;;18.20;99.90;;;;;;5032064;28;20232;-76
2022/08/28 05:17:16;;;;;;;111.17;44.63;;;18.20;99.90;;;;;;5031978;28;20545;-76
2022/08/28 05:19:42;;;;;;;92.03;43.23;;;18.20;99.90;;;;;;5032472;28;20225;-76
2022/08/28 05:22:08;;;;;;;107.13;46.67;;;18.20;99.90;;;;;;5033814;28;20275;-77
2022/08/28 05:24:36;;;;;;;79.03;41.73;;;18.30;99.90;;;;;;5030503;28;20225;-76
2022/08/28 05:27:02;;;;;;;86.77;42.03;;;18.30;99.90;;;;;;5031301;28;20442;-77
2022/08/28 05:29:28;;;;;;;73.27;43.63;;;18.30;99.90;;;;;;5031366;28;20479;-77
2022/08/28 05:31:54;;;;;;;84.77;43.97;;;18.30;99.90;;;;;;5030201;28;20935;-77
2022/08/28 05:34:19;;;;;;;76.73;41.17;;;18.30;99.90;;;;;;5030732;28;20423;-77
2022/08/28 05:36:45;;;;;;;86.03;41.87;;;18.30;99.90;;;;;;5030085;28;20264;-77
2022/08/28 05:39:31;;;;;;;77.07;40.87;;;18.30;99.90;;;;;;5030953;28;20237;-76
2022/08/28 05:42:00;;;;;;;83.23;41.07;;;18.40;99.90;;;;;;5030276;28;20596;-77
2022/08/28 05:44:25;;;;;;;85.57;40.30;;;18.40;99.90;;;;;;5030335;28;20411;-76
2022/08/28 05:46:54;;;;;;;70.40;38.27;;;18.40;99.90;;;;;;5029069;28;20423;-77
2022/08/28 05:49:20;;;;;;;69.57;37.33;;;18.40;99.90;;;;;;5029895;28;20207;-76
2022/08/28 05:51:46;;;;;;;74.63;39.40;;;18.40;99.90;;;;;;5030143;28;20422;-76
2022/08/28 05:54:15;;;;;;;68.00;37.00;;;18.40;99.90;;;;;;5029971;28;20180;-77
2022/08/28 05:56:43;;;;;;;72.63;37.50;;;18.50;99.90;;;;;;5029884;28;20419;-76
2022/08/28 05:59:10;;;;;;;80.17;39.83;;;18.50;99.90;;;;;;5029496;28;20420;-76
2022/08/28 06:01:48;;;;;;;70.83;38.17;;;18.40;99.90;;;;;;5029827;28;20469;-76
2022/08/28 06:04:24;;;;;;;73.17;40.73;;;18.50;99.90;;;;;;5029893;28;20407;-76
2022/08/28 06:06:50;;;;;;;69.10;38.90;;;18.50;99.90;;;;;;5029610;28;20449;-76
2022/08/28 06:09:20;;;;;;;67.23;38.80;;;18.50;99.90;;;;;;5029608;28;20936;-76
2022/08/28 06:11:49;;;;;;;70.67;40.47;;;18.50;99.90;;;;;;5028040;28;20423;-76
2022/08/28 06:14:20;;;;;;;69.23;39.70;;;18.50;99.90;;;;;;5029601;28;20432;-76
2022/08/28 06:16:56;;;;;;;65.47;37.50;;;18.60;99.90;;;;;;5029801;28;20430;-76
2022/08/28 06:19:23;;;;;;;81.47;38.20;;;18.60;99.90;;;;;;5029772;28;21022;-76
2022/08/28 06:21:54;;;;;;;72.70;38.47;;;18.60;99.90;;;;;;5029739;28;20458;-77
2022/08/28 06:24:19;;;;;;;73.77;37.97;;;18.60;99.90;;;;;;5030160;28;20437;-76
2022/08/28 06:26:48;;;;;;;69.10;35.90;;;18.70;99.90;;;;;;5012636;28;20434;-76
2022/08/28 06:29:17;;;;;;;67.13;36.47;;;18.70;99.90;;;;;;5029867;28;20195;-76
2022/08/28 06:31:53;;;;;;;53.77;33.83;;;18.70;99.90;;;;;;5030635;28;20445;-76
2022/08/28 06:34:19;;;;;;;63.50;36.10;;;18.80;99.90;;;;;;5030066;28;20505;-76
2022/08/28 06:36:45;;;;;;;58.43;34.37;;;18.90;99.90;;;;;;5030155;28;20525;-76
2022/08/28 06:39:12;;;;;;;56.30;34.13;;;18.90;99.90;;;;;;5028221;28;21119;-76
2022/08/28 06:41:41;;;;;;;60.33;33.07;;;18.90;99.90;;;;;;5029603;28;20271;-76
2022/08/28 06:44:10;;;;;;;53.83;32.43;;;19.00;99.90;;;;;;5029277;28;20466;-76
2022/08/28 06:46:36;;;;;;;47.93;29.00;;;19.00;99.90;;;;;;5029370;28;20420;-76
2022/08/28 06:49:07;;;;;;;44.93;31.10;;;19.00;99.90;;;;;;5029320;28;20419;-76
2022/08/28 06:51:35;;;;;;;52.90;30.20;;;19.10;99.90;;;;;;5029263;28;20986;-76
2022/08/28 06:54:05;;;;;;;53.27;29.67;;;19.10;99.90;;;;;;5029124;28;20498;-76
2022/08/28 06:56:33;;;;;;;46.57;30.10;;;19.20;99.90;;;;;;5028846;28;20419;-76
2022/08/28 06:58:59;;;;;;;48.63;29.60;;;19.20;99.90;;;;;;5029087;28;20423;-76
2022/08/28 07:01:35;;;;;;;43.33;29.90;;;19.30;99.90;;;;;;5028774;28;21045;-76
2022/08/28 07:04:08;;;;;;;43.13;30.50;;;19.30;99.90;;;;;;5028390;28;20202;-76
2022/08/28 07:06:57;;;;;;;42.40;29.53;;;19.40;99.90;;;;;;5028283;28;20416;-77
2022/08/28 07:09:23;;;;;;;40.83;27.77;;;19.30;99.90;;;;;;5028098;28;20481;-76
2022/08/28 07:11:50;;;;;;;43.20;27.90;;;19.40;99.90;;;;;;5028167;28;20414;-76
2022/08/28 07:14:18;;;;;;;44.77;29.30;;;19.30;99.90;;;;;;5028192;28;20784;-76
2022/08/28 07:16:47;;;;;;;54.03;29.53;;;19.30;99.90;;;;;;5028060;28;20417;-76
2022/08/28 07:19:12;;;;;;;45.43;28.43;;;19.40;99.90;;;;;;5028847;28;20814;-76
2022/08/28 07:21:41;;;;;;;39.00;26.30;;;19.40;99.90;;;;;;5028685;28;20519;-76
2022/08/28 07:24:08;;;;;;;36.63;25.00;;;19.40;99.90;;;;;;5028077;28;20411;-76
2022/08/28 07:26:34;;;;;;;38.53;27.63;;;19.40;99.90;;;;;;5027906;28;20419;-76
2022/08/28 07:29:02;;;;;;;43.27;28.17;;;19.40;99.90;;;;;;5027840;28;20417;-76
2022/08/28 07:31:27;;;;;;;44.40;26.83;;;19.40;99.90;;;;;;5010486;28;20465;-76
2022/08/28 07:33:54;;;;;;;42.43;27.20;;;19.50;99.90;;;;;;5027903;28;20771;-76
2022/08/28 07:36:24;;;;;;;39.43;26.30;;;19.60;99.90;;;;;;5026266;28;20665;-76
2022/08/28 07:38:50;;;;;;;41.20;25.97;;;19.60;99.90;;;;;;5027561;28;20415;-76
2022/08/28 07:41:22;;;;;;;42.10;26.47;;;19.70;99.90;;;;;;5027806;28;20446;-76
2022/08/28 07:46:32;;;;;;;45.17;26.67;;;19.80;99.90;;;;;;5027965;28;20465;-76
2022/08/28 07:48:58;;;;;;;42.80;26.60;;;19.80;99.90;;;;;;5027623;28;20409;-76
2022/08/28 07:51:26;;;;;;;45.00;27.27;;;19.70;99.90;;;;;;5027494;28;21072;-76
2022/08/28 07:53:53;;;;;;;40.30;24.33;;;19.70;99.90;;;;;;5026241;28;20423;-76
2022/08/28 07:56:19;;;;;;;30.80;22.30;;;19.80;99.90;;;;;;5027359;28;20411;-77
2022/08/28 07:58:46;;;;;;;37.60;23.20;;;19.80;99.90;;;;;;5027670;28;20407;-76
2022/08/28 08:01:11;;;;;;;34.83;23.17;;;19.80;99.90;;;;;;5027635;28;20443;-76
2022/08/28 08:03:37;;;;;;;39.23;23.40;;;19.90;99.90;;;;;;5025822;28;20489;-76
2022/08/28 08:06:04;;;;;;;33.70;23.30;;;19.90;99.90;;;;;;5027355;28;20204;-77
2022/08/28 08:08:32;;;;;;;28.33;20.90;;;20.00;99.90;;;;;;5027855;28;20173;-76
2022/08/28 08:11:09;;;;;;;33.27;22.80;;;20.10;99.90;;;;;;5030861;28;20473;-76
2022/08/28 08:13:36;;;;;;;31.20;22.77;;;20.10;99.90;;;;;;5030574;28;20504;-76
2022/08/28 08:16:11;;;;;;;33.90;22.10;;;20.20;99.90;;;;;;5030863;28;20415;-76
2022/08/28 08:18:38;;;;;;;34.03;22.90;;;20.40;99.90;;;;;;5030659;28;20429;-76
2022/08/28 08:21:05;;;;;;;32.70;21.83;;;20.50;99.90;;;;;;5030969;28;20814;-77
2022/08/28 08:23:36;;;;;;;30.93;20.57;;;20.50;99.90;;;;;;5029324;28;20427;-77
2022/08/28 08:26:08;;;;;;;34.40;21.60;;;20.60;99.90;;;;;;5031016;28;20454;-76
2022/08/28 08:28:36;;;;;;;34.40;23.20;;;20.70;99.90;;;;;;5030671;28;20825;-76
2022/08/28 08:31:17;;;;;;;25.50;18.30;;;20.70;99.90;;;;;;5028882;28;20474;-77
2022/08/28 08:33:46;;;;;;;28.03;19.20;;;21.00;99.90;;;;;;5030682;28;20505;-76
2022/08/28 08:36:13;;;;;;;30.33;18.20;;;21.10;99.90;;;;;;5030818;28;20502;-76
2022/08/28 08:38:40;;;;;;;30.23;18.00;;;21.30;99.90;;;;;;5030613;28;20495;-76
2022/08/28 08:41:29;;;;;;;23.20;18.13;;;21.50;99.90;;;;;;5030516;28;21046;-77
2022/08/28 08:44:05;;;;;;;24.20;15.90;;;21.70;99.90;;;;;;5029012;28;20457;-76
2022/08/28 08:46:56;;;;;;;27.53;16.60;;;21.90;99.90;;;;;;5030598;28;20424;-76
2022/08/28 08:49:25;;;;;;;20.33;14.27;;;22.30;99.90;;;;;;5029058;28;20429;-76
2022/08/28 08:52:03;;;;;;;23.07;15.07;;;22.40;99.90;;;;;;5030371;28;20425;-76
2022/08/28 08:54:30;;;;;;;22.40;15.17;;;22.40;99.90;;;;;;5030387;28;20411;-77
2022/08/28 08:56:56;;;;;;;20.37;15.77;;;22.40;99.90;;;;;;5030323;28;20842;-76
2022/08/28 08:59:29;;;;;;;18.73;15.33;;;22.60;99.90;;;;;;5028818;28;20409;-76
2022/08/28 09:02:06;;;;;;;20.57;16.27;;;22.70;99.90;;;;;;5030319;28;20685;-76
2022/08/28 09:04:40;;;;;;;19.30;13.17;;;23.10;99.90;;;;;;5030085;28;20795;-76
2022/08/28 09:07:36;;;;;;;16.00;12.00;;;23.20;99.90;;;;;;5030611;28;20781;-76
2022/08/28 09:10:05;;;;;;;15.40;12.07;;;23.30;99.90;;;;;;5022971;28;20476;-79
2022/08/28 09:12:42;;;;;;;19.30;12.20;;;23.60;99.90;;;;;;5029471;28;20458;-79
2022/08/28 09:15:21;;;;;;;16.90;10.83;;;23.80;99.90;;;;;;5030910;28;20431;-79
2022/08/28 09:17:51;;;;;;;17.33;10.43;;;24.00;99.90;;;;;;5030593;28;20486;-80
2022/08/28 09:20:26;;;;;;;16.40;10.47;;;24.30;99.90;;;;;;5029938;28;20948;-80
2022/08/28 09:22:53;;;;;;;13.77;8.90;;;24.60;99.90;;;;;;5035125;28;20848;-80
2022/08/28 09:25:43;;;;;;;12.40;7.57;;;24.90;99.90;;;;;;5016849;28;20424;-80
2022/08/28 09:28:15;;;;;;;10.73;8.43;;;25.10;99.90;;;;;;5033141;28;21088;-80
2022/08/28 09:30:42;;;;;;;11.00;7.70;;;25.40;99.90;;;;;;5034566;28;21085;-80
2022/08/28 09:33:08;;;;;;;12.70;9.53;;;25.70;99.90;;;;;;5034639;28;20447;-80
2022/08/28 09:35:36;;;;;;;9.90;7.20;;;26.00;99.90;;;;;;5030888;28;20438;-80
2022/08/28 09:38:21;;;;;;;11.97;8.33;;;26.30;99.90;;;;;;5031501;28;20215;-80
2022/08/28 09:43:35;;;;;;;14.10;8.20;;;26.80;99.90;;;;;;4999678;28;20553;-79
2022/08/28 09:46:05;;;;;;;15.93;8.43;;;27.00;99.90;;;;;;5014878;28;20514;-80
2022/08/28 09:48:40;;;;;;;9.80;8.40;;;27.00;99.90;;;;;;5029474;28;20427;-80
2022/08/28 09:51:21;;;;;;;9.77;7.80;;;27.20;99.90;;;;;;5030362;28;20923;-79
2022/08/28 09:53:55;;;;;;;12.50;7.80;;;27.30;99.90;;;;;;5031555;28;20955;-80
2022/08/28 09:56:32;;;;;;;13.17;8.10;;;27.20;99.90;;;;;;5030426;28;20989;-80
2022/08/28 09:59:09;;;;;;;11.80;7.60;;;27.30;99.90;;;;;;5036299;28;20422;-80
2022/08/28 10:01:40;;;;;;;11.60;6.97;;;27.70;99.90;;;;;;5014499;28;20433;-78
2022/08/28 10:04:12;;;;;;;10.10;8.17;;;28.20;99.90;;;;;;5030569;28;20396;-78
2022/08/28 10:06:39;;;;;;;10.10;6.50;;;28.00;99.90;;;;;;5032265;28;20832;-79
2022/08/28 10:09:28;;;;;;;11.70;7.27;;;28.20;99.90;;;;;;5032125;28;20427;-79
2022/08/28 10:12:15;;;;;;;13.20;7.50;;;28.40;99.90;;;;;;5032482;28;20447;-77
2022/08/28 10:14:57;;;;;;;11.30;8.07;;;28.70;99.90;;;;;;5032526;28;20467;-79
2022/08/28 10:17:44;;;;;;;8.43;6.90;;;28.70;99.90;;;;;;5030566;28;20407;-77
2022/08/28 10:20:54;;;;;;;12.93;7.70;;;28.50;99.90;;;;;;5031122;28;20446;-77
2022/08/28 10:23:59;;;;;;;10.27;7.63;;;28.30;99.90;;;;;;5029670;28;20395;-77
2022/08/28 10:26:39;;;;;;;10.87;6.97;;;28.00;99.90;;;;;;5008640;28;20911;-78
2022/08/28 10:29:13;;;;;;;7.87;6.97;;;28.20;99.90;;;;;;5030555;28;20407;-77
2022/08/28 10:32:00;;;;;;;12.57;6.13;;;28.40;99.90;;;;;;5029993;28;20426;-77
2022/08/28 10:34:41;;;;;;;8.60;6.67;;;28.80;99.90;;;;;;5030665;28;20561;-78
2022/08/28 10:37:35;;;;;;;10.70;6.63;;;29.10;99.90;;;;;;5028885;28;20425;-77
2022/08/28 10:40:33;;;;;;;8.70;5.80;;;28.70;99.90;;;;;;5029963;28;20450;-78
2022/08/28 10:43:43;;;;;;;8.63;6.03;;;28.40;99.90;;;;;;5008942;28;20423;-77
2022/08/28 10:46:19;;;;;;;9.00;6.50;;;28.50;99.90;;;;;;4987544;28;20927;-77
2022/08/28 10:48:52;;;;;;;12.23;6.73;;;28.60;99.90;;;;;;5026609;28;20418;-78
2022/08/28 10:51:47;;;;;;;6.73;6.03;;;28.80;99.90;;;;;;5029681;28;20525;-78
2022/08/28 10:54:35;;;;;;;10.90;6.83;;;29.00;99.90;;;;;;5011708;28;20450;-77
2022/08/28 10:57:31;;;;;;;9.13;6.30;;;29.20;99.90;;;;;;5031242;28;20442;-78
2022/08/28 11:00:03;;;;;;;9.10;6.40;;;29.30;99.90;;;;;;5031409;28;20435;-78
2022/08/28 11:02:29;;;;;;;10.00;5.93;;;29.40;99.90;;;;;;5030575;28;20442;-78
2022/08/28 11:04:56;;;;;;;6.37;5.27;;;29.70;99.70;;;;;;5031429;28;20422;-78
2022/08/28 11:07:36;;;;;;;8.47;6.20;;;29.80;99.20;;;;;;5030333;28;20446;-78
2022/08/28 11:10:39;;;;;;;7.37;5.90;;;29.70;98.30;;;;;;5028655;28;20518;-77
2022/08/28 11:13:08;;;;;;;11.00;5.70;;;29.00;99.30;;;;;;5027198;28;20431;-76
2022/08/28 11:15:35;;;;;;;8.63;5.80;;;28.70;99.90;;;;;;5028535;28;20415;-78
2022/08/28 11:18:16;;;;;;;7.83;6.07;;;28.30;99.50;;;;;;5029253;28;20434;-79
2022/08/28 11:21:14;;;;;;;8.83;6.17;;;28.00;99.90;;;;;;5029674;28;20532;-80
2022/08/28 11:24:10;;;;;;;8.83;6.17;;;27.70;99.90;;;;;;5026408;28;21119;-78
2022/08/28 11:27:17;;;;;;;7.93;7.00;;;27.30;99.90;;;;;;5029567;28;20411;-77
2022/08/28 11:30:21;;;;;;;9.10;6.20;;;27.10;99.90;;;;;;5028048;28;20499;-79
2022/08/28 11:32:50;;;;;;;8.57;6.13;;;26.90;99.90;;;;;;5028469;28;20468;-77
2022/08/28 11:35:43;;;;;;;6.97;6.30;;;27.50;99.90;;;;;;5028412;28;20417;-76
2022/08/28 11:38:10;;;;;;;12.37;6.70;;;27.90;99.90;;;;;;5028580;28;20422;-76
2022/08/28 11:40:49;;;;;;;9.93;6.23;;;28.10;99.90;;;;;;5026732;28;20443;-75
2022/08/28 11:43:15;;;;;;;11.70;5.70;;;28.10;99.90;;;;;;5029172;28;20422;-77
2022/08/28 11:45:46;;;;;;;6.97;6.17;;;28.60;99.90;;;;;;5032208;28;20781;-77
2022/08/28 11:48:34;;;;;;;8.83;6.60;;;28.40;99.10;;;;;;5030952;28;20185;-78
2022/08/28 11:51:02;;;;;;;8.27;5.47;;;27.90;99.90;;;;;;5031269;28;20470;-78
2022/08/28 11:53:43;;;;;;;7.30;5.50;;;27.70;99.90;;;;;;5032804;28;20411;-78
2022/08/28 11:56:27;;;;;;;5.83;5.27;;;27.50;99.90;;;;;;5032602;28;20465;-78
2022/08/28 11:59:11;;;;;;;6.27;5.67;;;27.80;99.90;;;;;;5031583;28;20425;-79
2022/08/28 12:01:38;;;;;;;11.57;6.20;;;28.20;99.90;;;;;;5031578;28;20438;-78
2022/08/28 12:04:07;;;;;;;6.87;5.80;;;28.30;99.70;;;;;;5031855;28;20725;-78
2022/08/28 12:06:48;;;;;;;6.90;5.50;;;28.50;99.50;;;;;;5035294;28;20427;-77
2022/08/28 12:09:35;;;;;;;8.43;5.47;;;28.90;97.40;;;;;;5034983;28;20948;-78
2022/08/28 12:12:08;;;;;;;8.07;5.57;;;28.90;96.90;;;;;;5036003;28;20411;-78
2022/08/28 12:14:39;;;;;;;7.23;6.13;;;28.80;96.80;;;;;;5036723;28;20408;-79
2022/08/28 12:17:15;;;;;;;11.20;6.13;;;28.80;97.00;;;;;;5035509;28;20427;-78
2022/08/28 12:20:08;;;;;;;7.90;5.90;;;29.00;97.60;;;;;;5036854;28;20439;-77
2022/08/28 12:22:51;;;;;;;11.27;6.73;;;29.20;95.90;;;;;;5036654;28;20412;-78
2022/08/28 12:25:32;;;;;;;8.70;6.47;;;29.20;95.90;;;;;;5036381;28;20427;-78
2022/08/28 12:28:04;;;;;;;7.53;5.73;;;29.20;96.10;;;;;;5034705;28;20420;-78
2022/08/28 12:30:38;;;;;;;6.30;5.60;;;29.40;95.10;;;;;;5035157;28;20506;-78
2022/08/28 12:33:35;;;;;;;8.20;6.30;;;29.40;95.40;;;;;;5050349;28;20640;-79
2022/08/28 12:36:10;;;;;;;6.17;5.63;;;29.50;95.20;;;;;;5035296;28;20462;-78
2022/08/28 12:38:36;;;;;;;5.43;4.90;;;29.00;95.70;;;;;;5032323;28;20457;-78
2022/08/28 12:41:02;;;;;;;10.70;6.17;;;28.30;96.40;;;;;;5031101;28;20942;-78
2022/08/28 12:43:34;;;;;;;7.60;5.30;;;28.10;98.10;;;;;;5032293;28;20428;-78
2022/08/28 12:46:09;;;;;;;6.70;6.00;;;28.50;96.90;;;;;;5031417;28;20208;-78
2022/08/28 12:48:59;;;;;;;6.40;5.60;;;28.80;95.50;;;;;;5032217;28;20900;-78
2022/08/28 12:51:31;;;;;;;11.10;6.07;;;29.00;94.70;;;;;;5029143;28;20479;-79
2022/08/28 12:54:00;;;;;;;6.00;5.30;;;28.70;93.50;;;;;;5029174;28;20451;-79
2022/08/28 12:56:28;;;;;;;6.10;5.10;;;28.60;95.20;;;;;;5030439;28;20834;-78
2022/08/28 12:58:55;;;;;;;6.30;5.70;;;28.50;94.80;;;;;;5031196;28;20473;-78